首页
METAR-TAF:

METAR-TAF

机场 :

Julian Carroll Airport

杰克逊, 肯塔基州, 美国

纬度: 37-35-29N, 经度: 083-18-52W, 海拔: 421米

当前天气观测

该预报发布于1小时和0分钟前的17:53 UTC
风速6节,风向多变,有时为15节阵风
温度 13°C
湿度 67%
气压 1012 hPa
能見度: 16.1公里
阴天层高于6500英尺

METAR: KJKL 231753Z AUTO VRB06G15KT 10SM OVC065 13/07 A2989 RMK AO2 RAE42 SLP121 P0000 60001 T01330067 10139 20106 58019

时间: 13:53 (18:53 UTC)

预报

该预报发布于1小时和15分钟前的17:38 UTC
预报有效从23日的 18点(UTC)到 24日的 18点(UTC)
风速11节,风向
能見度: 10公里
阴天层高于8000英尺
附近有阵雨
从 23日的 2200点(UTC)
风速9节,风向西南
能見度: 9.7公里
阴天层高于4500英尺
阵雨
从 24日的 0000点(UTC)
风速7节,风向西
能見度: 3.2公里
阴天层高于1500英尺
从 24日的 0800点(UTC)
风速6节,风向西转西北
能見度: 4.8公里
阴天层高于800英尺
小雨, 雪
从 24日的 1400点(UTC)
风速6节,风向西转西北
能見度: 10公里
多云层高于1000英尺

TAF: KJKL 231738Z 2318/2418 19011KT P6SM VCSH OVC080 WS020/19045KT FM232200 22009KT 6SM SHRA OVC045 WS020/19040KT FM240000 26007KT 2SM RA OVC015 FM240800 30006KT 3SM -RASN OVC008 FM241400 29006KT P6SM BKN010

超过4000个机场的气象观测和天气预报(METAR&TAF报告)。

可查询的气象台以黄色和红色小点在地图上表示。

将鼠标移到小点上方,可查看气象台名称。

然后点击查看天气观测和预报。

如需切换地图:点击带黑十字的绿色按钮放大地图;点击带横线的绿色按钮缩小地图;或者点击绿色箭头查看邻近地区的地图。


METAR-TAF: